sensor_id;sensor_type;location;lat;lon;timestamp;pressure;altitude;pressure_sealevel;temperature;humidity
75585;BME280;64162;53.508;10.476;2024-03-08T00:01:32;102036.47;;;7.56;55.79
75585;BME280;64162;53.508;10.476;2024-03-08T00:03:58;102034.44;;;7.36;56.75
75585;BME280;64162;53.508;10.476;2024-03-08T00:06:25;102026.72;;;7.23;57.11
75585;BME280;64162;53.508;10.476;2024-03-08T00:08:51;102022.72;;;7.19;56.91
75585;BME280;64162;53.508;10.476;2024-03-08T00:11:18;102023.94;;;7.39;56.31
75585;BME280;64162;53.508;10.476;2024-03-08T00:13:45;102035.06;;;7.52;55.89
75585;BME280;64162;53.508;10.476;2024-03-08T00:16:11;102037.72;;;7.00;57.31
75585;BME280;64162;53.508;10.476;2024-03-08T00:18:38;102020.44;;;7.14;56.92
75585;BME280;64162;53.508;10.476;2024-03-08T00:21:05;102034.22;;;6.88;57.63
75585;BME280;64162;53.508;10.476;2024-03-08T00:23:31;102025.13;;;6.70;58.22
75585;BME280;64162;53.508;10.476;2024-03-08T00:25:59;102018.69;;;7.15;56.75
75585;BME280;64162;53.508;10.476;2024-03-08T00:28:26;102027.00;;;6.80;57.59
75585;BME280;64162;53.508;10.476;2024-03-08T00:30:53;102017.28;;;6.59;58.51
75585;BME280;64162;53.508;10.476;2024-03-08T00:33:20;102016.53;;;7.09;56.63
75585;BME280;64162;53.508;10.476;2024-03-08T00:35:47;102024.03;;;6.99;57.89
75585;BME280;64162;53.508;10.476;2024-03-08T00:38:14;102019.81;;;7.11;57.27
75585;BME280;64162;53.508;10.476;2024-03-08T00:40:40;102011.16;;;7.24;56.14
75585;BME280;64162;53.508;10.476;2024-03-08T00:43:07;102025.38;;;7.05;56.88
75585;BME280;64162;53.508;10.476;2024-03-08T00:45:33;102032.75;;;6.59;58.33
75585;BME280;64162;53.508;10.476;2024-03-08T00:48:00;102021.53;;;6.85;58.00
75585;BME280;64162;53.508;10.476;2024-03-08T00:50:27;102029.41;;;6.57;58.57
75585;BME280;64162;53.508;10.476;2024-03-08T00:52:53;102028.16;;;6.89;57.57
75585;BME280;64162;53.508;10.476;2024-03-08T00:55:20;102014.81;;;6.70;58.45
75585;BME280;64162;53.508;10.476;2024-03-08T00:57:47;102021.25;;;7.02;57.57
75585;BME280;64162;53.508;10.476;2024-03-08T01:00:14;102002.63;;;7.11;57.00
75585;BME280;64162;53.508;10.476;2024-03-08T01:02:40;102015.56;;;6.84;57.69
75585;BME280;64162;53.508;10.476;2024-03-08T01:05:07;101998.94;;;6.51;59.15
75585;BME280;64162;53.508;10.476;2024-03-08T01:07:34;102009.50;;;6.73;57.90
75585;BME280;64162;53.508;10.476;2024-03-08T01:10:03;102002.47;;;6.62;58.92
75585;BME280;64162;53.508;10.476;2024-03-08T01:12:29;101993.22;;;6.72;58.46
75585;BME280;64162;53.508;10.476;2024-03-08T01:14:56;101995.59;;;6.09;60.09
75585;BME280;64162;53.508;10.476;2024-03-08T01:17:24;101995.53;;;6.50;59.25
75585;BME280;64162;53.508;10.476;2024-03-08T01:19:51;101982.25;;;6.43;58.63
75585;BME280;64162;53.508;10.476;2024-03-08T01:22:17;101990.16;;;6.40;59.00
75585;BME280;64162;53.508;10.476;2024-03-08T01:24:44;101970.16;;;6.71;58.04
75585;BME280;64162;53.508;10.476;2024-03-08T01:27:10;101971.38;;;6.53;58.82
75585;BME280;64162;53.508;10.476;2024-03-08T01:29:38;101982.22;;;6.04;59.66
75585;BME280;64162;53.508;10.476;2024-03-08T01:32:05;101973.50;;;6.07;59.98
75585;BME280;64162;53.508;10.476;2024-03-08T01:34:32;101968.00;;;6.25;60.03
75585;BME280;64162;53.508;10.476;2024-03-08T01:36:59;101952.44;;;6.54;58.42
75585;BME280;64162;53.508;10.476;2024-03-08T01:39:25;101942.41;;;6.49;58.49
75585;BME280;64162;53.508;10.476;2024-03-08T01:41:53;101943.91;;;6.91;57.95
75585;BME280;64162;53.508;10.476;2024-03-08T01:44:20;101955.59;;;6.44;58.77
75585;BME280;64162;53.508;10.476;2024-03-08T01:46:47;101940.84;;;6.21;59.49
75585;BME280;64162;53.508;10.476;2024-03-08T01:49:15;101929.97;;;6.56;58.31
75585;BME280;64162;53.508;10.476;2024-03-08T01:51:44;101934.91;;;6.46;59.37
75585;BME280;64162;53.508;10.476;2024-03-08T01:54:11;101933.50;;;6.67;58.22
75585;BME280;64162;53.508;10.476;2024-03-08T01:56:39;101918.13;;;6.40;58.65
75585;BME280;64162;53.508;10.476;2024-03-08T01:59:06;101914.34;;;6.59;59.00
75585;BME280;64162;53.508;10.476;2024-03-08T02:01:34;101911.25;;;6.66;58.33
75585;BME280;64162;53.508;10.476;2024-03-08T02:04:01;101926.00;;;6.12;59.68
75585;BME280;64162;53.508;10.476;2024-03-08T02:06:27;101919.13;;;6.13;59.83
75585;BME280;64162;53.508;10.476;2024-03-08T02:08:54;101912.72;;;6.58;58.97
75585;BME280;64162;53.508;10.476;2024-03-08T02:11:20;101924.94;;;6.41;59.11
75585;BME280;64162;53.508;10.476;2024-03-08T02:13:47;101912.22;;;6.13;59.16
75585;BME280;64162;53.508;10.476;2024-03-08T02:16:20;101912.03;;;6.29;59.63
75585;BME280;64162;53.508;10.476;2024-03-08T02:18:46;101904.25;;;6.43;58.95
75585;BME280;64162;53.508;10.476;2024-03-08T02:21:13;101905.69;;;6.60;58.87
75585;BME280;64162;53.508;10.476;2024-03-08T02:23:43;101913.19;;;6.50;58.36
75585;BME280;64162;53.508;10.476;2024-03-08T02:26:10;101901.59;;;6.57;58.08
75585;BME280;64162;53.508;10.476;2024-03-08T02:28:36;101905.16;;;6.42;58.47
75585;BME280;64162;53.508;10.476;2024-03-08T02:31:03;101904.88;;;6.59;57.63
75585;BME280;64162;53.508;10.476;2024-03-08T02:33:34;101906.91;;;6.41;58.72
75585;BME280;64162;53.508;10.476;2024-03-08T02:36:00;101907.31;;;6.23;59.18
75585;BME280;64162;53.508;10.476;2024-03-08T02:38:27;101900.34;;;6.50;58.67
75585;BME280;64162;53.508;10.476;2024-03-08T02:40:54;101905.56;;;6.36;59.23
75585;BME280;64162;53.508;10.476;2024-03-08T02:43:22;101912.09;;;5.61;61.14
75585;BME280;64162;53.508;10.476;2024-03-08T02:45:48;101908.38;;;5.38;62.32
75585;BME280;64162;53.508;10.476;2024-03-08T02:48:16;101914.13;;;6.36;59.45
75585;BME280;64162;53.508;10.476;2024-03-08T02:50:43;101898.53;;;6.13;59.39
75585;BME280;64162;53.508;10.476;2024-03-08T02:53:11;101898.88;;;5.67;61.05
75585;BME280;64162;53.508;10.476;2024-03-08T02:55:38;101902.00;;;5.85;60.87
75585;BME280;64162;53.508;10.476;2024-03-08T02:58:05;101896.31;;;6.46;59.01
75585;BME280;64162;53.508;10.476;2024-03-08T03:00:35;101904.38;;;6.02;60.12
75585;BME280;64162;53.508;10.476;2024-03-08T03:03:02;101893.91;;;5.64;61.80
75585;BME280;64162;53.508;10.476;2024-03-08T03:05:29;101900.94;;;5.75;61.75
75585;BME280;64162;53.508;10.476;2024-03-08T03:07:56;101899.75;;;6.07;59.81
75585;BME280;64162;53.508;10.476;2024-03-08T03:10:24;101896.38;;;6.19;59.88
75585;BME280;64162;53.508;10.476;2024-03-08T03:12:52;101896.59;;;6.29;59.49
75585;BME280;64162;53.508;10.476;2024-03-08T03:15:19;101882.16;;;6.01;60.33
75585;BME280;64162;53.508;10.476;2024-03-08T03:17:50;101874.78;;;6.22;59.23
75585;BME280;64162;53.508;10.476;2024-03-08T03:20:19;101889.97;;;5.85;60.42
75585;BME280;64162;53.508;10.476;2024-03-08T03:22:52;101873.75;;;6.24;58.53
75585;BME280;64162;53.508;10.476;2024-03-08T03:25:20;101886.84;;;5.68;61.11
75585;BME280;64162;53.508;10.476;2024-03-08T03:27:55;101876.94;;;6.15;59.89
75585;BME280;64162;53.508;10.476;2024-03-08T03:30:25;101891.22;;;5.39;61.69
75585;BME280;64162;53.508;10.476;2024-03-08T03:32:53;101878.63;;;5.89;60.27
75585;BME280;64162;53.508;10.476;2024-03-08T03:35:21;101885.72;;;5.72;60.50
75585;BME280;64162;53.508;10.476;2024-03-08T03:37:49;101880.97;;;6.44;58.54
75585;BME280;64162;53.508;10.476;2024-03-08T03:40:33;101862.88;;;6.46;58.21
75585;BME280;64162;53.508;10.476;2024-03-08T03:43:00;101873.84;;;6.10;59.18
75585;BME280;64162;53.508;10.476;2024-03-08T03:45:27;101863.31;;;6.00;58.73
75585;BME280;64162;53.508;10.476;2024-03-08T03:47:54;101862.28;;;5.90;59.91
75585;BME280;64162;53.508;10.476;2024-03-08T03:50:21;101874.50;;;5.87;59.81
75585;BME280;64162;53.508;10.476;2024-03-08T03:52:48;101868.81;;;6.21;58.74
75585;BME280;64162;53.508;10.476;2024-03-08T03:55:15;101860.66;;;5.75;60.26
75585;BME280;64162;53.508;10.476;2024-03-08T03:57:41;101868.28;;;5.77;59.96
75585;BME280;64162;53.508;10.476;2024-03-08T04:00:08;101866.03;;;5.85;59.26
75585;BME280;64162;53.508;10.476;2024-03-08T04:02:40;101866.00;;;5.99;59.14
75585;BME280;64162;53.508;10.476;2024-03-08T04:05:08;101866.34;;;6.20;58.52
75585;BME280;64162;53.508;10.476;2024-03-08T04:07:36;101877.69;;;6.42;57.82
75585;BME280;64162;53.508;10.476;2024-03-08T04:10:04;101872.16;;;5.96;58.59
75585;BME280;64162;53.508;10.476;2024-03-08T04:12:33;101872.13;;;6.23;58.20
75585;BME280;64162;53.508;10.476;2024-03-08T04:15:00;101871.47;;;6.07;58.99
75585;BME280;64162;53.508;10.476;2024-03-08T04:17:26;101862.41;;;6.14;58.42
75585;BME280;64162;53.508;10.476;2024-03-08T04:19:53;101872.06;;;5.98;58.60
75585;BME280;64162;53.508;10.476;2024-03-08T04:22:20;101867.69;;;6.13;58.45
75585;BME280;64162;53.508;10.476;2024-03-08T04:24:47;101871.31;;;6.23;58.08
75585;BME280;64162;53.508;10.476;2024-03-08T04:27:13;101871.03;;;5.88;59.15
75585;BME280;64162;53.508;10.476;2024-03-08T04:29:40;101871.25;;;6.10;58.96
75585;BME280;64162;53.508;10.476;2024-03-08T04:32:08;101866.25;;;6.21;58.00
75585;BME280;64162;53.508;10.476;2024-03-08T04:34:35;101875.06;;;6.04;59.06
75585;BME280;64162;53.508;10.476;2024-03-08T04:37:02;101870.69;;;5.66;59.96
75585;BME280;64162;53.508;10.476;2024-03-08T04:39:28;101865.72;;;6.03;59.52
75585;BME280;64162;53.508;10.476;2024-03-08T04:41:58;101863.97;;;5.77;60.10
75585;BME280;64162;53.508;10.476;2024-03-08T04:44:26;101861.38;;;5.50;60.72
75585;BME280;64162;53.508;10.476;2024-03-08T04:46:53;101860.38;;;5.53;61.02
75585;BME280;64162;53.508;10.476;2024-03-08T04:49:19;101852.63;;;5.67;59.98
75585;BME280;64162;53.508;10.476;2024-03-08T04:51:48;101856.44;;;5.47;60.89
75585;BME280;64162;53.508;10.476;2024-03-08T04:54:14;101856.44;;;5.47;61.02
75585;BME280;64162;53.508;10.476;2024-03-08T04:56:41;101855.81;;;5.71;59.81
75585;BME280;64162;53.508;10.476;2024-03-08T04:59:07;101851.09;;;5.50;60.93
75585;BME280;64162;53.508;10.476;2024-03-08T05:01:34;101856.13;;;5.79;60.40
75585;BME280;64162;53.508;10.476;2024-03-08T05:04:04;101850.81;;;5.82;59.60
75585;BME280;64162;53.508;10.476;2024-03-08T05:06:32;101850.59;;;5.72;60.17
75585;BME280;64162;53.508;10.476;2024-03-08T05:08:59;101842.97;;;5.71;59.59
75585;BME280;64162;53.508;10.476;2024-03-08T05:11:26;101838.91;;;5.27;61.19
75585;BME280;64162;53.508;10.476;2024-03-08T05:13:53;101853.31;;;5.56;60.19
75585;BME280;64162;53.508;10.476;2024-03-08T05:16:20;101853.09;;;5.18;61.29
75585;BME280;64162;53.508;10.476;2024-03-08T05:18:48;101857.91;;;5.51;60.33
75585;BME280;64162;53.508;10.476;2024-03-08T05:21:15;101851.69;;;5.95;59.45
75585;BME280;64162;53.508;10.476;2024-03-08T05:23:43;101849.53;;;5.62;60.07
75585;BME280;64162;53.508;10.476;2024-03-08T05:26:10;101837.94;;;5.28;61.63
75585;BME280;64162;53.508;10.476;2024-03-08T05:28:36;101841.50;;;5.13;61.61
75585;BME280;64162;53.508;10.476;2024-03-08T05:31:03;101849.53;;;5.21;61.94
75585;BME280;64162;53.508;10.476;2024-03-08T05:33:29;101843.19;;;5.27;61.14
75585;BME280;64162;53.508;10.476;2024-03-08T05:35:56;101846.75;;;4.97;61.69
75585;BME280;64162;53.508;10.476;2024-03-08T05:38:23;101832.16;;;4.84;63.25
75585;BME280;64162;53.508;10.476;2024-03-08T05:40:49;101844.53;;;4.91;62.27
75585;BME280;64162;53.508;10.476;2024-03-08T05:43:17;101836.47;;;4.69;62.93
75585;BME280;64162;53.508;10.476;2024-03-08T05:45:46;101834.50;;;5.15;61.20
75585;BME280;64162;53.508;10.476;2024-03-08T05:48:13;101842.53;;;5.23;60.78
75585;BME280;64162;53.508;10.476;2024-03-08T05:50:40;101838.22;;;4.83;61.82
75585;BME280;64162;53.508;10.476;2024-03-08T05:53:06;101830.34;;;4.71;62.41
75585;BME280;64162;53.508;10.476;2024-03-08T05:55:33;101835.63;;;4.40;63.10
75585;BME280;64162;53.508;10.476;2024-03-08T05:58:02;101835.38;;;4.87;62.55
75585;BME280;64162;53.508;10.476;2024-03-08T06:00:29;101836.66;;;4.66;62.65
75585;BME280;64162;53.508;10.476;2024-03-08T06:02:57;101839.22;;;4.66;62.76
75585;BME280;64162;53.508;10.476;2024-03-08T06:05:25;101839.19;;;5.08;61.30
75585;BME280;64162;53.508;10.476;2024-03-08T06:07:51;101842.53;;;5.23;60.53
75585;BME280;64162;53.508;10.476;2024-03-08T06:10:19;101835.09;;;4.92;61.82
75585;BME280;64162;53.508;10.476;2024-03-08T06:12:46;101849.38;;;5.10;61.63
75585;BME280;64162;53.508;10.476;2024-03-08T06:15:12;101843.78;;;5.17;61.35
75585;BME280;64162;53.508;10.476;2024-03-08T06:17:41;101853.38;;;5.14;61.31
75585;BME280;64162;53.508;10.476;2024-03-08T06:20:08;101847.84;;;4.79;61.94
75585;BME280;64162;53.508;10.476;2024-03-08T06:22:39;101837.75;;;4.76;62.55
75585;BME280;64162;53.508;10.476;2024-03-08T06:25:11;101848.00;;;4.90;61.92
75585;BME280;64162;53.508;10.476;2024-03-08T06:27:42;101827.25;;;5.48;59.67
75585;BME280;64162;53.508;10.476;2024-03-08T06:30:13;101836.31;;;4.72;62.40
75585;BME280;64162;53.508;10.476;2024-03-08T06:32:39;101831.53;;;5.35;60.53
75585;BME280;64162;53.508;10.476;2024-03-08T06:35:06;101827.97;;;4.83;61.70
75585;BME280;64162;53.508;10.476;2024-03-08T06:37:33;101826.13;;;4.85;62.17
75585;BME280;64162;53.508;10.476;2024-03-08T06:40:00;101829.59;;;4.55;63.63
75585;BME280;64162;53.508;10.476;2024-03-08T06:42:27;101833.63;;;4.73;63.03
75585;BME280;64162;53.508;10.476;2024-03-08T06:44:54;101831.16;;;4.44;64.02
75585;BME280;64162;53.508;10.476;2024-03-08T06:47:26;101841.66;;;4.25;64.17
75585;BME280;64162;53.508;10.476;2024-03-08T06:49:52;101823.06;;;5.47;60.30
75585;BME280;64162;53.508;10.476;2024-03-08T06:52:19;101839.38;;;4.49;62.85
75585;BME280;64162;53.508;10.476;2024-03-08T06:54:45;101832.44;;;4.79;62.05
75585;BME280;64162;53.508;10.476;2024-03-08T06:57:12;101833.19;;;4.81;62.44
75585;BME280;64162;53.508;10.476;2024-03-08T06:59:40;101816.59;;;4.87;62.66
75585;BME280;64162;53.508;10.476;2024-03-08T07:02:06;101828.53;;;5.14;62.42
75585;BME280;64162;53.508;10.476;2024-03-08T07:04:35;101829.59;;;4.98;62.60
75585;BME280;64162;53.508;10.476;2024-03-08T07:07:05;101828.69;;;4.56;63.23
75585;BME280;64162;53.508;10.476;2024-03-08T07:09:31;101826.38;;;5.35;61.26
75585;BME280;64162;53.508;10.476;2024-03-08T07:11:58;101822.63;;;5.41;61.45
75585;BME280;64162;53.508;10.476;2024-03-08T07:14:25;101837.34;;;5.10;62.29
75585;BME280;64162;53.508;10.476;2024-03-08T07:16:52;101824.16;;;5.16;62.25
75585;BME280;64162;53.508;10.476;2024-03-08T07:19:19;101835.63;;;5.11;62.45
75585;BME280;64162;53.508;10.476;2024-03-08T07:21:45;101837.84;;;5.03;62.40
75585;BME280;64162;53.508;10.476;2024-03-08T07:24:14;101827.06;;;5.51;62.01
75585;BME280;64162;53.508;10.476;2024-03-08T07:26:43;101828.28;;;5.46;61.54
75585;BME280;64162;53.508;10.476;2024-03-08T07:29:10;101828.13;;;5.35;62.42
75585;BME280;64162;53.508;10.476;2024-03-08T07:31:36;101826.63;;;5.72;61.68
75585;BME280;64162;53.508;10.476;2024-03-08T07:34:28;101819.69;;;5.06;63.34
75585;BME280;64162;53.508;10.476;2024-03-08T07:36:58;101831.75;;;5.18;62.71
75585;BME280;64162;53.508;10.476;2024-03-08T07:39:25;101826.88;;;5.54;61.66
75585;BME280;64162;53.508;10.476;2024-03-08T07:41:53;101814.47;;;5.88;61.18
75585;BME280;64162;53.508;10.476;2024-03-08T07:44:19;101821.66;;;5.95;60.79
75585;BME280;64162;53.508;10.476;2024-03-08T07:46:46;101830.31;;;5.00;62.41
75585;BME280;64162;53.508;10.476;2024-03-08T07:49:12;101819.22;;;5.40;62.17
75585;BME280;64162;53.508;10.476;2024-03-08T07:51:40;101823.41;;;5.95;60.75
75585;BME280;64162;53.508;10.476;2024-03-08T07:54:07;101822.38;;;5.58;61.78
75585;BME280;64162;53.508;10.476;2024-03-08T07:56:35;101832.81;;;5.28;62.68
75585;BME280;64162;53.508;10.476;2024-03-08T07:59:03;101833.31;;;5.21;63.15
75585;BME280;64162;53.508;10.476;2024-03-08T08:01:30;101817.66;;;6.04;60.68
75585;BME280;64162;53.508;10.476;2024-03-08T08:03:57;101821.25;;;5.89;61.10
75585;BME280;64162;53.508;10.476;2024-03-08T08:06:23;101817.50;;;6.45;59.80
75585;BME280;64162;53.508;10.476;2024-03-08T08:08:51;101823.34;;;6.60;59.53
75585;BME280;64162;53.508;10.476;2024-03-08T08:11:18;101806.47;;;6.56;59.38
75585;BME280;64162;53.508;10.476;2024-03-08T08:13:45;101814.16;;;5.92;61.40
75585;BME280;64162;53.508;10.476;2024-03-08T08:16:11;101809.66;;;5.69;61.96
75585;BME280;64162;53.508;10.476;2024-03-08T08:18:39;101812.66;;;6.40;60.56
75585;BME280;64162;53.508;10.476;2024-03-08T08:21:07;101811.38;;;5.95;61.48
75585;BME280;64162;53.508;10.476;2024-03-08T08:23:34;101808.34;;;6.41;59.73
75585;BME280;64162;53.508;10.476;2024-03-08T08:26:00;101812.28;;;5.55;61.86
75585;BME280;64162;53.508;10.476;2024-03-08T08:28:29;101819.63;;;5.88;61.96
75585;BME280;64162;53.508;10.476;2024-03-08T08:30:57;101809.75;;;6.70;59.69
75585;BME280;64162;53.508;10.476;2024-03-08T08:33:23;101810.91;;;6.16;60.37
75585;BME280;64162;53.508;10.476;2024-03-08T08:35:51;101803.66;;;6.84;58.58
75585;BME280;64162;53.508;10.476;2024-03-08T08:38:20;101816.56;;;6.46;59.33
75585;BME280;64162;53.508;10.476;2024-03-08T08:40:46;101812.22;;;5.96;61.27
75585;BME280;64162;53.508;10.476;2024-03-08T08:43:13;101803.28;;;6.01;60.16
75585;BME280;64162;53.508;10.476;2024-03-08T08:45:40;101801.25;;;5.80;60.76
75585;BME280;64162;53.508;10.476;2024-03-08T08:48:07;101811.53;;;6.57;59.43
75585;BME280;64162;53.508;10.476;2024-03-08T08:50:33;101813.03;;;6.09;60.07
75585;BME280;64162;53.508;10.476;2024-03-08T08:53:00;101796.38;;;6.78;58.39
75585;BME280;64162;53.508;10.476;2024-03-08T08:55:26;101786.91;;;6.66;58.54
75585;BME280;64162;53.508;10.476;2024-03-08T08:57:53;101801.56;;;6.27;60.27
75585;BME280;64162;53.508;10.476;2024-03-08T09:00:20;101797.78;;;6.82;59.07
75585;BME280;64162;53.508;10.476;2024-03-08T09:02:47;101786.44;;;6.84;58.97
75585;BME280;64162;53.508;10.476;2024-03-08T09:05:17;101779.34;;;6.88;58.80
75585;BME280;64162;53.508;10.476;2024-03-08T09:07:44;101788.81;;;7.24;57.98
75585;BME280;64162;53.508;10.476;2024-03-08T09:10:11;101794.75;;;7.24;57.83
75585;BME280;64162;53.508;10.476;2024-03-08T09:12:41;101787.19;;;7.10;57.47
75585;BME280;64162;53.508;10.476;2024-03-08T09:15:08;101774.75;;;7.52;56.50
75585;BME280;64162;53.508;10.476;2024-03-08T09:17:37;101786.19;;;7.13;58.20
75585;BME280;64162;53.508;10.476;2024-03-08T09:20:07;101777.63;;;7.71;56.62
75585;BME280;64162;53.508;10.476;2024-03-08T09:22:35;101764.94;;;7.57;56.13
75585;BME280;64162;53.508;10.476;2024-03-08T09:25:01;101767.59;;;7.44;56.17
75585;BME280;64162;53.508;10.476;2024-03-08T09:27:28;101773.28;;;7.37;56.16
75585;BME280;64162;53.508;10.476;2024-03-08T09:29:56;101761.97;;;7.50;55.81
75585;BME280;64162;53.508;10.476;2024-03-08T09:32:22;101757.44;;;7.54;55.52
75585;BME280;64162;53.508;10.476;2024-03-08T09:34:49;101759.63;;;7.47;55.90
75585;BME280;64162;53.508;10.476;2024-03-08T09:37:16;101754.56;;;7.69;55.57
75585;BME280;64162;53.508;10.476;2024-03-08T09:39:43;101737.28;;;7.94;54.79
75585;BME280;64162;53.508;10.476;2024-03-08T09:42:11;101741.41;;;7.61;55.81
75585;BME280;64162;53.508;10.476;2024-03-08T09:44:45;101738.66;;;7.87;53.63
75585;BME280;64162;53.508;10.476;2024-03-08T09:47:13;101736.56;;;8.03;53.27
75585;BME280;64162;53.508;10.476;2024-03-08T09:49:41;101723.56;;;8.04;52.40
75585;BME280;64162;53.508;10.476;2024-03-08T09:52:08;101725.00;;;8.31;52.25
75585;BME280;64162;53.508;10.476;2024-03-08T09:54:36;101719.81;;;7.97;53.01
75585;BME280;64162;53.508;10.476;2024-03-08T09:57:04;101727.00;;;8.38;51.75
75585;BME280;64162;53.508;10.476;2024-03-08T09:59:30;101716.31;;;8.54;51.73
75585;BME280;64162;53.508;10.476;2024-03-08T10:02:14;101715.69;;;8.06;52.07
75585;BME280;64162;53.508;10.476;2024-03-08T10:04:42;101730.47;;;8.15;51.93
75585;BME280;64162;53.508;10.476;2024-03-08T10:07:09;101711.84;;;8.23;51.97
75585;BME280;64162;53.508;10.476;2024-03-08T10:09:35;101709.72;;;8.61;51.25
75585;BME280;64162;53.508;10.476;2024-03-08T10:12:02;101691.94;;;9.22;49.61
75585;BME280;64162;53.508;10.476;2024-03-08T10:14:31;101688.13;;;8.62;50.23
75585;BME280;64162;53.508;10.476;2024-03-08T10:16:58;101688.22;;;8.72;49.22
75585;BME280;64162;53.508;10.476;2024-03-08T10:19:27;101690.91;;;8.70;49.54
75585;BME280;64162;53.508;10.476;2024-03-08T10:21:56;101675.94;;;9.28;48.28
75585;BME280;64162;53.508;10.476;2024-03-08T10:24:25;101691.66;;;9.04;49.01
75585;BME280;64162;53.508;10.476;2024-03-08T10:26:53;101670.44;;;9.42;48.30
75585;BME280;64162;53.508;10.476;2024-03-08T10:29:20;101659.59;;;9.27;48.34
75585;BME280;64162;53.508;10.476;2024-03-08T10:31:46;101662.56;;;9.64;47.86
75585;BME280;64162;53.508;10.476;2024-03-08T10:34:13;101660.25;;;8.88;49.36
75585;BME280;64162;53.508;10.476;2024-03-08T10:36:40;101665.91;;;9.55;48.75
75585;BME280;64162;53.508;10.476;2024-03-08T10:39:17;101654.75;;;9.34;48.23
75585;BME280;64162;53.508;10.476;2024-03-08T10:41:52;101663.41;;;8.91;48.05
75585;BME280;64162;53.508;10.476;2024-03-08T10:44:35;101652.22;;;9.23;47.66
75585;BME280;64162;53.508;10.476;2024-03-08T10:47:19;101650.16;;;9.88;46.49
75585;BME280;64162;53.508;10.476;2024-03-08T10:52:30;101646.25;;;10.34;47.06
75585;BME280;64162;53.508;10.476;2024-03-08T10:54:58;101644.78;;;9.09;46.54
75585;BME280;64162;53.508;10.476;2024-03-08T10:57:25;101641.25;;;9.51;46.94
75585;BME280;64162;53.508;10.476;2024-03-08T10:59:54;101634.03;;;9.45;45.52
75585;BME280;64162;53.508;10.476;2024-03-08T11:02:22;101630.06;;;9.51;45.61
75585;BME280;64162;53.508;10.476;2024-03-08T11:04:50;101622.78;;;9.14;46.93
75585;BME280;64162;53.508;10.476;2024-03-08T11:07:17;101616.22;;;9.31;45.81
75585;BME280;64162;53.508;10.476;2024-03-08T11:09:48;101609.47;;;9.60;45.94
75585;BME280;64162;53.508;10.476;2024-03-08T11:12:27;101608.59;;;9.50;46.99
75585;BME280;64162;53.508;10.476;2024-03-08T11:15:00;101608.19;;;9.24;45.49
75585;BME280;64162;53.508;10.476;2024-03-08T11:20:13;101608.78;;;9.58;44.83
75585;BME280;64162;53.508;10.476;2024-03-08T11:22:52;101602.25;;;9.33;45.54
75585;BME280;64162;53.508;10.476;2024-03-08T11:25:38;101596.69;;;9.99;45.07
75585;BME280;64162;53.508;10.476;2024-03-08T11:33:31;101580.53;;;9.76;43.65
75585;BME280;64162;53.508;10.476;2024-03-08T11:36:13;101570.22;;;10.16;43.82
75585;BME280;64162;53.508;10.476;2024-03-08T11:38:49;101577.31;;;10.52;43.25
75585;BME280;64162;53.508;10.476;2024-03-08T11:41:20;101575.91;;;9.70;43.67
75585;BME280;64162;53.508;10.476;2024-03-08T11:43:47;101568.59;;;9.84;43.36
75585;BME280;64162;53.508;10.476;2024-03-08T11:46:16;101571.97;;;9.75;43.41
75585;BME280;64162;53.508;10.476;2024-03-08T11:48:44;101563.38;;;10.15;43.07
75585;BME280;64162;53.508;10.476;2024-03-08T11:51:12;101557.41;;;10.24;43.26
75585;BME280;64162;53.508;10.476;2024-03-08T11:53:39;101553.59;;;10.28;42.93
75585;BME280;64162;53.508;10.476;2024-03-08T11:56:09;101541.47;;;10.57;41.65
75585;BME280;64162;53.508;10.476;2024-03-08T11:58:36;101537.00;;;10.40;42.03
75585;BME280;64162;53.508;10.476;2024-03-08T12:01:08;101542.97;;;10.89;41.89
75585;BME280;64162;53.508;10.476;2024-03-08T12:03:39;101536.13;;;10.97;41.93
75585;BME280;64162;53.508;10.476;2024-03-08T12:06:06;101524.69;;;10.61;41.74
75585;BME280;64162;53.508;10.476;2024-03-08T12:08:35;101525.75;;;10.97;41.04
75585;BME280;64162;53.508;10.476;2024-03-08T12:11:05;101538.34;;;10.25;40.72
75585;BME280;64162;53.508;10.476;2024-03-08T12:13:33;101520.88;;;10.85;40.25
75585;BME280;64162;53.508;10.476;2024-03-08T12:16:02;101525.94;;;10.86;40.21
75585;BME280;64162;53.508;10.476;2024-03-08T12:18:34;101513.53;;;10.70;39.62
75585;BME280;64162;53.508;10.476;2024-03-08T12:21:06;101515.31;;;10.41;40.77
75585;BME280;64162;53.508;10.476;2024-03-08T12:23:35;101507.56;;;10.60;40.23
75585;BME280;64162;53.508;10.476;2024-03-08T12:26:14;101505.28;;;11.04;39.14
75585;BME280;64162;53.508;10.476;2024-03-08T12:28:43;101492.84;;;10.61;39.30
75585;BME280;64162;53.508;10.476;2024-03-08T12:31:11;101499.78;;;10.70;39.23
75585;BME280;64162;53.508;10.476;2024-03-08T12:33:55;101495.13;;;10.73;38.86
75585;BME280;64162;53.508;10.476;2024-03-08T12:36:25;101483.81;;;10.74;39.20
75585;BME280;64162;53.508;10.476;2024-03-08T12:38:53;101481.06;;;10.86;39.29
75585;BME280;64162;53.508;10.476;2024-03-08T12:41:21;101471.53;;;11.50;38.95
75585;BME280;64162;53.508;10.476;2024-03-08T12:43:47;101467.94;;;11.34;38.63
75585;BME280;64162;53.508;10.476;2024-03-08T12:46:21;101463.63;;;10.68;40.18
75585;BME280;64162;53.508;10.476;2024-03-08T12:48:48;101473.63;;;11.10;39.88
75585;BME280;64162;53.508;10.476;2024-03-08T12:51:16;101454.34;;;11.49;38.36
75585;BME280;64162;53.508;10.476;2024-03-08T12:53:44;101461.00;;;11.25;39.12
75585;BME280;64162;53.508;10.476;2024-03-08T12:56:12;101448.13;;;11.33;38.79
75585;BME280;64162;53.508;10.476;2024-03-08T12:58:39;101438.44;;;11.07;38.55
75585;BME280;64162;53.508;10.476;2024-03-08T13:01:07;101444.28;;;11.64;37.97
75585;BME280;64162;53.508;10.476;2024-03-08T13:03:36;101444.94;;;11.21;38.85